createdAt,value
2022-08-22T00:04:12.129Z,18.70
2022-08-22T00:09:31.671Z,18.70
2022-08-22T00:14:51.282Z,18.60
2022-08-22T00:19:56.182Z,18.50
2022-08-22T00:25:28.225Z,18.60
2022-08-22T00:30:34.223Z,18.60
2022-08-22T00:35:44.953Z,18.40
2022-08-22T00:40:55.630Z,18.50
2022-08-22T00:46:19.426Z,18.40
2022-08-22T00:51:39.746Z,18.30
2022-08-22T00:57:00.116Z,18.20
2022-08-22T01:02:25.114Z,18.10
2022-08-22T01:08:02.424Z,18.20
2022-08-22T01:13:31.242Z,18.20
2022-08-22T01:18:50.290Z,18.00
2022-08-22T01:24:29.756Z,17.90
2022-08-22T01:29:56.125Z,17.70
2022-08-22T01:35:11.723Z,17.50
2022-08-22T01:40:22.840Z,17.40
2022-08-22T01:45:34.441Z,17.40
2022-08-22T01:50:39.299Z,17.20
2022-08-22T01:55:56.100Z,17.20
2022-08-22T02:01:13.112Z,17.10
2022-08-22T02:06:22.989Z,17.00
2022-08-22T02:11:38.060Z,17.10
2022-08-22T02:16:47.510Z,17.10
2022-08-22T02:22:03.578Z,16.80
2022-08-22T02:27:10.335Z,16.70
2022-08-22T02:32:38.530Z,16.70
2022-08-22T02:38:10.235Z,16.70
2022-08-22T02:43:23.223Z,16.60
2022-08-22T02:48:36.787Z,16.70
2022-08-22T02:54:01.973Z,16.70
2022-08-22T02:59:15.812Z,16.70
2022-08-22T03:04:23.348Z,16.70
2022-08-22T03:09:36.871Z,16.70
2022-08-22T03:14:44.574Z,16.70
2022-08-22T03:20:00.230Z,16.70
2022-08-22T03:25:30.746Z,16.60
2022-08-22T03:30:57.936Z,16.50
2022-08-22T03:36:11.199Z,16.30
2022-08-22T03:41:12.929Z,16.00
2022-08-22T03:46:36.015Z,16.10
2022-08-22T03:52:10.174Z,16.30
2022-08-22T03:57:48.226Z,16.20
2022-08-22T04:02:58.886Z,16.30
2022-08-22T04:08:29.012Z,16.30
2022-08-22T04:13:53.532Z,16.30
2022-08-22T04:19:34.215Z,16.50
2022-08-22T04:24:59.694Z,16.50
2022-08-22T04:30:22.162Z,16.50
2022-08-22T04:35:34.990Z,16.60
2022-08-22T04:40:50.227Z,16.40
2022-08-22T04:46:12.947Z,16.50
2022-08-22T04:51:27.520Z,16.60
2022-08-22T04:56:57.769Z,16.70
2022-08-22T05:02:06.545Z,16.80
2022-08-22T05:07:13.671Z,16.90
2022-08-22T05:12:23.018Z,17.10
2022-08-22T05:17:28.916Z,17.40
2022-08-22T05:22:36.557Z,18.20
2022-08-22T05:27:48.903Z,21.30
2022-08-22T05:33:12.263Z,23.50
2022-08-22T05:38:18.031Z,24.10
2022-08-22T05:43:23.083Z,25.10
2022-08-22T05:48:42.055Z,26.40
2022-08-22T05:53:50.771Z,27.50
2022-08-22T05:59:02.953Z,27.80
2022-08-22T06:04:35.882Z,28.60
2022-08-22T06:09:43.494Z,27.60
2022-08-22T06:14:56.957Z,26.90
2022-08-22T06:20:00.236Z,27.50
2022-08-22T06:25:12.770Z,28.20
2022-08-22T06:30:16.509Z,30.10
2022-08-22T06:35:55.424Z,29.20
2022-08-22T06:41:00.731Z,29.50
2022-08-22T06:46:02.939Z,30.20
2022-08-22T06:51:07.273Z,30.80
2022-08-22T06:56:10.037Z,31.10
2022-08-22T07:01:27.750Z,31.20
2022-08-22T07:06:34.430Z,30.20
2022-08-22T07:11:41.631Z,31.40
2022-08-22T07:17:00.030Z,32.00
2022-08-22T07:22:15.004Z,31.70
2022-08-22T07:27:56.748Z,32.30
2022-08-22T07:33:23.628Z,32.50
2022-08-22T07:38:33.496Z,33.00
2022-08-22T07:43:48.557Z,34.60
2022-08-22T07:49:09.375Z,33.50
2022-08-22T07:54:29.321Z,31.60
2022-08-22T07:59:35.066Z,31.90
2022-08-22T08:04:40.567Z,31.30
2022-08-22T08:09:50.742Z,31.70
2022-08-22T08:14:54.918Z,31.80
2022-08-22T08:19:57.339Z,30.10
2022-08-22T08:25:00.622Z,31.10
2022-08-22T08:30:15.553Z,31.00
2022-08-22T08:35:25.429Z,32.00
2022-08-22T08:40:53.279Z,31.30
2022-08-22T08:46:10.725Z,30.60
2022-08-22T08:51:50.901Z,30.80
2022-08-22T08:56:59.603Z,31.50
2022-08-22T09:02:33.909Z,31.80
2022-08-22T09:08:00.779Z,32.20
2022-08-22T09:18:59.360Z,33.00
2022-08-22T09:24:35.508Z,32.50
2022-08-22T09:29:55.273Z,31.20
2022-08-22T09:35:25.871Z,31.50
2022-08-22T09:40:44.672Z,32.20
2022-08-22T09:46:31.353Z,30.70
2022-08-22T09:51:58.120Z,30.30
2022-08-22T09:57:24.674Z,32.10
2022-08-22T10:02:57.254Z,30.70
2022-08-22T10:08:13.547Z,29.80
2022-08-22T10:13:29.679Z,31.30
2022-08-22T10:18:43.997Z,29.80
2022-08-22T10:24:25.975Z,30.20
2022-08-22T10:30:08.975Z,32.20
2022-08-22T10:35:10.763Z,33.30
2022-08-22T10:40:16.103Z,32.90
2022-08-22T10:45:42.438Z,32.00
2022-08-22T10:50:49.986Z,32.00
2022-08-22T10:55:58.443Z,31.60
2022-08-22T11:01:37.489Z,32.00
2022-08-22T11:07:03.253Z,31.50
2022-08-22T11:12:15.667Z,31.50
2022-08-22T11:17:54.495Z,32.00
2022-08-22T11:23:14.647Z,32.70
2022-08-22T11:28:30.137Z,30.90
2022-08-22T11:33:47.430Z,30.60
2022-08-22T11:39:23.254Z,30.80
2022-08-22T11:44:34.546Z,32.10
2022-08-22T11:49:55.403Z,30.70
2022-08-22T11:55:07.166Z,31.60
2022-08-22T12:00:45.208Z,32.70
2022-08-22T12:05:55.614Z,31.20
2022-08-22T12:11:08.680Z,31.90
2022-08-22T12:16:24.532Z,33.30
2022-08-22T12:21:50.623Z,32.30
2022-08-22T12:27:29.151Z,31.30
2022-08-22T12:32:37.012Z,30.40
2022-08-22T12:37:56.675Z,30.50
2022-08-22T12:43:13.723Z,30.60
2022-08-22T12:48:33.603Z,30.80
2022-08-22T12:54:17.319Z,30.80
2022-08-22T12:59:25.326Z,31.60
2022-08-22T13:04:33.569Z,30.50
2022-08-22T13:09:43.169Z,29.50
2022-08-22T13:14:47.516Z,29.30
2022-08-22T13:19:59.063Z,30.20
2022-08-22T13:25:29.966Z,31.20
2022-08-22T13:30:38.760Z,31.80
2022-08-22T13:35:55.240Z,31.20
2022-08-22T13:40:58.306Z,31.00
2022-08-22T13:46:07.279Z,31.10
2022-08-22T13:51:19.304Z,31.60
2022-08-22T13:56:29.839Z,30.90
2022-08-22T14:01:49.021Z,31.70
2022-08-22T14:07:04.374Z,32.40
2022-08-22T14:12:18.490Z,31.60
2022-08-22T14:17:28.152Z,31.90
2022-08-22T14:22:35.434Z,31.20
2022-08-22T14:28:00.854Z,32.10
2022-08-22T14:33:34.086Z,32.70
2022-08-22T14:38:40.636Z,32.60
2022-08-22T14:44:11.940Z,31.90
2022-08-22T14:49:20.430Z,31.30
2022-08-22T14:54:29.167Z,32.50
2022-08-22T14:59:52.264Z,32.60
2022-08-22T15:04:55.400Z,32.70
2022-08-22T15:10:07.320Z,32.50
2022-08-22T15:15:32.573Z,31.60
2022-08-22T15:20:45.373Z,31.90
2022-08-22T15:26:13.297Z,31.50
2022-08-22T15:31:18.800Z,31.40
2022-08-22T15:36:26.559Z,31.10
2022-08-22T15:41:36.315Z,31.10
2022-08-22T15:46:55.965Z,30.30
2022-08-22T15:51:59.318Z,30.20
2022-08-22T15:57:38.817Z,30.10
2022-08-22T16:02:56.345Z,29.90
2022-08-22T16:07:58.073Z,29.90
2022-08-22T16:13:14.695Z,30.10
2022-08-22T16:18:34.471Z,30.00
2022-08-22T16:23:53.543Z,29.50
2022-08-22T16:29:32.103Z,29.00
2022-08-22T16:34:42.518Z,28.70
2022-08-22T16:39:48.688Z,28.50
2022-08-22T16:45:24.462Z,28.40
2022-08-22T16:50:38.314Z,28.30
2022-08-22T16:56:24.317Z,28.10
2022-08-22T17:01:50.493Z,27.90
2022-08-22T17:07:17.199Z,27.90
2022-08-22T17:12:56.514Z,27.80
2022-08-22T17:18:21.711Z,27.60
2022-08-22T17:23:57.376Z,27.60
2022-08-22T17:29:33.881Z,27.60
2022-08-22T17:34:42.744Z,27.50
2022-08-22T17:39:57.842Z,27.10
2022-08-22T17:45:04.258Z,27.10
2022-08-22T17:50:18.535Z,27.00
2022-08-22T17:55:27.919Z,26.70
2022-08-22T18:00:34.796Z,26.40
2022-08-22T18:05:46.798Z,26.20
2022-08-22T18:11:15.365Z,25.90
2022-08-22T18:16:47.815Z,25.70
2022-08-22T18:21:59.677Z,25.60
2022-08-22T18:27:09.395Z,25.50
2022-08-22T18:32:43.707Z,25.30
2022-08-22T18:38:19.260Z,25.10
2022-08-22T18:43:31.802Z,24.80
2022-08-22T18:49:05.363Z,24.70
2022-08-22T18:54:04.724Z,24.50
2022-08-22T18:59:43.633Z,24.30
2022-08-22T19:04:56.995Z,24.30
2022-08-22T19:10:29.474Z,24.10
2022-08-22T19:15:47.669Z,24.20
2022-08-22T19:21:53.434Z,24.10
2022-08-22T19:27:07.216Z,24.00
2022-08-22T19:32:12.937Z,23.90
2022-08-22T19:37:30.740Z,24.00
2022-08-22T19:42:38.998Z,23.70
2022-08-22T19:47:42.712Z,23.70
2022-08-22T19:53:03.408Z,23.60
2022-08-22T19:58:30.254Z,23.50
2022-08-22T20:03:49.378Z,23.50
2022-08-22T20:09:08.466Z,23.50
2022-08-22T20:14:25.028Z,23.40
2022-08-22T20:19:41.621Z,23.30
2022-08-22T20:24:43.436Z,23.20
2022-08-22T20:29:54.472Z,23.10
2022-08-22T20:35:00.051Z,23.10
2022-08-22T20:40:54.827Z,23.00
2022-08-22T20:46:04.360Z,22.90
2022-08-22T20:51:09.743Z,22.80
2022-08-22T20:56:12.004Z,22.80
2022-08-22T21:01:15.731Z,22.60
2022-08-22T21:06:18.962Z,22.40
2022-08-22T21:11:40.562Z,22.40
2022-08-22T21:16:42.331Z,22.30
2022-08-22T21:21:44.167Z,22.00
2022-08-22T21:27:00.290Z,21.90
2022-08-22T21:32:14.489Z,21.80
2022-08-22T21:37:40.041Z,21.80
2022-08-22T21:42:45.343Z,21.80
2022-08-22T21:47:47.209Z,21.70
2022-08-22T21:52:54.790Z,21.60
2022-08-22T21:58:05.770Z,21.50
2022-08-22T22:03:07.528Z,21.60
2022-08-22T22:08:13.308Z,21.60
2022-08-22T22:13:16.728Z,21.40
2022-08-22T22:18:22.133Z,21.40
2022-08-22T22:23:25.173Z,21.50
2022-08-22T22:28:32.837Z,21.50
2022-08-22T22:33:37.292Z,21.50
2022-08-22T22:38:40.792Z,21.20
2022-08-22T22:43:42.532Z,21.10
2022-08-22T22:48:44.340Z,21.00
2022-08-22T22:53:46.548Z,20.90
2022-08-22T22:58:49.459Z,20.90
2022-08-22T23:03:59.485Z,20.80
2022-08-22T23:09:07.456Z,20.70
2022-08-22T23:14:09.165Z,20.60
2022-08-22T23:19:13.827Z,20.50
2022-08-22T23:24:16.156Z,20.40
2022-08-22T23:29:18.269Z,20.10
2022-08-22T23:34:29.103Z,20.00
2022-08-22T23:39:31.745Z,20.20
2022-08-22T23:44:35.607Z,20.10
2022-08-22T23:49:38.397Z,19.90
2022-08-22T23:54:40.312Z,19.80
2022-08-22T23:59:47.886Z,19.70
